Observation data for White River Lake on 02/11/2018      Previous  Date  Next       Current Mesonet Observations  Soil Data  Daily Summary Page  Observations in Plain Language
KWVS 110600Z 01012KT M07/M13 A3002 RMK A01 T10691132  RH  060%=      5-min Rain = 0
KWVS 110605Z 01012G17KT M07/M13 A3002 RMK A01 T10691132  RH  060%=      5-min Rain = 0
KWVS 110610Z 01013KT M07/M13 A3001 RMK A01 T10691132  RH  060%=      5-min Rain = 0
KWVS 110615Z 01013KT M07/M13 A3001 RMK A01 T10691132  RH  061%=      5-min Rain = 0
KWVS 110620Z 00015KT M07/M13 A3001 RMK A01 T10691132  RH  061%=      5-min Rain = 0
KWVS 110625Z 00015KT M07/M13 A3001 RMK A01 T10691132  RH  061%=      5-min Rain = 0
KWVS 110630Z 00014KT M07/M13 A3001 RMK A01 T10691132  RH  061%=      5-min Rain = 0
KWVS 110635Z 36012KT M07/M13 A3001 RMK A01 T10701132  RH  061%=      5-min Rain = 0
KWVS 110640Z 36012KT M07/M13 A3001 RMK A01 T10701132  RH  061%=      5-min Rain = 0
KWVS 110645Z 00012KT M07/M13 A3001 RMK A01 T10691132  RH  061%=      5-min Rain = 0
KWVS 110650Z 36012KT M07/M13 A3001 RMK A01 T10691131  RH  061%=      5-min Rain = 0
KWVS 110655Z 36011KT M07/M13 A3001 RMK A01 T10691132  RH  061%=      5-min Rain = 0
KWVS 110700Z 35012KT M07/M13 A3001 RMK A01 T10691131  RH  061%=      5-min Rain = 0
KWVS 110705Z 36012KT M07/M13 A3002 RMK A01 T10681131  RH  060%=      5-min Rain = 0
KWVS 110710Z 36014KT M07/M13 A3002 RMK A01 T10671131  RH  060%=      5-min Rain = 0
KWVS 110715Z 35012KT M07/M13 A3002 RMK A01 T10671131  RH  060%=      5-min Rain = 0
KWVS 110720Z 35012KT M07/M13 A3002 RMK A01 T10661131  RH  059%=      5-min Rain = 0
KWVS 110725Z 36013KT M07/M13 A3002 RMK A01 T10651131  RH  059%=      5-min Rain = 0
KWVS 110730Z 36012KT M07/M13 A3003 RMK A01 T10651131  RH  059%=      5-min Rain = 0
KWVS 110735Z 35011KT M06/M13 A3003 RMK A01 T10631130  RH  058%=      5-min Rain = 0
KWVS 110740Z 35011KT M06/M13 A3003 RMK A01 T10621130  RH  058%=      5-min Rain = 0
KWVS 110745Z 00013KT M06/M13 A3003 RMK A01 T10621131  RH  058%=      5-min Rain = 0
KWVS 110750Z 35015KT M06/M13 A3003 RMK A01 T10631131  RH  058%=      5-min Rain = 0
KWVS 110755Z 35014KT M06/M13 A3003 RMK A01 T10621131  RH  058%=      5-min Rain = 0
KWVS 110800Z 35017KT M06/M13 A3003 RMK A01 T10621132  RH  058%=      5-min Rain = 0
KWVS 110805Z 36017KT M06/M13 A3003 RMK A01 T10621132  RH  057%=      5-min Rain = 0
KWVS 110810Z 35017G23KT M06/M13 A3003 RMK A01 T10621133  RH  057%=      5-min Rain = 0
KWVS 110815Z 36018G23KT M06/M13 A3003 RMK A01 T10631134  RH  057%=      5-min Rain = 0
KWVS 110820Z 36016KT M06/M13 A3004 RMK A01 T10631134  RH  057%=      5-min Rain = 0
KWVS 110825Z 35017KT M06/M13 A3004 RMK A01 T10631134  RH  057%=      5-min Rain = 0
KWVS 110830Z 35017G22KT M06/M14 A3004 RMK A01 T10631135  RH  056%=      5-min Rain = 0
KWVS 110835Z 35016G21KT M06/M14 A3005 RMK A01 T10631135  RH  056%=      5-min Rain = 0
KWVS 110840Z 36018KT M06/M14 A3005 RMK A01 T10641136  RH  056%=      5-min Rain = 0
KWVS 110845Z 36019G24KT M07/M14 A3005 RMK A01 T10651137  RH  056%=      5-min Rain = 0
KWVS 110850Z 36018KT M06/M14 A3005 RMK A01 T10641136  RH  056%=      5-min Rain = 0
KWVS 110855Z 36020G27KT M07/M14 A3005 RMK A01 T10651137  RH  056%=      5-min Rain = 0
KWVS 110900Z 36016KT M07/M14 A3005 RMK A01 T10651137  RH  056%=      5-min Rain = 0
KWVS 110905Z 00014G19KT M06/M14 A3005 RMK A01 T10641137  RH  056%=      5-min Rain = 0
KWVS 110910Z 35013G18KT M06/M14 A3006 RMK A01 T10641137  RH  056%=      5-min Rain = 0
KWVS 110915Z 35014KT M06/M14 A3006 RMK A01 T10641138  RH  055%=      5-min Rain = 0
KWVS 110920Z 35015KT M07/M14 A3006 RMK A01 T10651138  RH  056%=      5-min Rain = 0
KWVS 110925Z 35015KT M07/M14 A3006 RMK A01 T10651139  RH  055%=      5-min Rain = 0
KWVS 110930Z 35015G20KT M07/M14 A3006 RMK A01 T10651139  RH  055%=      5-min Rain = 0
KWVS 110935Z 35016G21KT M07/M14 A3006 RMK A01 T10651139  RH  055%=      5-min Rain = 0
KWVS 110940Z 35015KT M07/M14 A3006 RMK A01 T10651139  RH  055%=      5-min Rain = 0
KWVS 110945Z 35016KT M07/M14 A3006 RMK A01 T10651139  RH  055%=      5-min Rain = 0
KWVS 110950Z 35016G22KT M07/M14 A3006 RMK A01 T10661139  RH  055%=      5-min Rain = 0
KWVS 110955Z 35016G21KT M07/M14 A3006 RMK A01 T10651139  RH  055%=      5-min Rain = 0
KWVS 111000Z 36016KT M07/M14 A3005 RMK A01 T10661140  RH  055%=      5-min Rain = 0
KWVS 111005Z 35015KT M07/M14 A3006 RMK A01 T10661139  RH  055%=      5-min Rain = 0
KWVS 111010Z 35014KT M07/M14 A3006 RMK A01 T10651139  RH  055%=      5-min Rain = 0
KWVS 111015Z 35015KT M07/M14 A3006 RMK A01 T10651139  RH  055%=      5-min Rain = 0
KWVS 111020Z 35016KT M07/M14 A3006 RMK A01 T10651139  RH  055%=      5-min Rain = 0
KWVS 111025Z 35015KT M06/M14 A3006 RMK A01 T10641139  RH  055%=      5-min Rain = 0
KWVS 111030Z 35016KT M06/M14 A3006 RMK A01 T10641139  RH  055%=      5-min Rain = 0
KWVS 111035Z 36016KT M06/M14 A3006 RMK A01 T10641139  RH  055%=      5-min Rain = 0
KWVS 111040Z 36016KT M06/M14 A3006 RMK A01 T10641139  RH  055%=      5-min Rain = 0
KWVS 111045Z 35015G21KT M06/M14 A3006 RMK A01 T10641139  RH  055%=      5-min Rain = 0
KWVS 111050Z 35017KT M06/M14 A3006 RMK A01 T10631139  RH  055%=      5-min Rain = 0
KWVS 111055Z 35015G21KT M06/M14 A3007 RMK A01 T10631139  RH  055%=      5-min Rain = 0
KWVS 111100Z 36016G21KT M06/M14 A3007 RMK A01 T10631139  RH  055%=      5-min Rain = 0
KWVS 111105Z 35017KT M06/M14 A3007 RMK A01 T10641139  RH  055%=      5-min Rain = 0
KWVS 111110Z 35017G22KT M07/M14 A3008 RMK A01 T10651139  RH  055%=      5-min Rain = 0
KWVS 111115Z 35014G21KT M06/M14 A3008 RMK A01 T10641139  RH  055%=      5-min Rain = 0
KWVS 111120Z 35015G20KT M06/M14 A3008 RMK A01 T10641139  RH  055%=      5-min Rain = 0
KWVS 111125Z 35015KT M06/M14 A3008 RMK A01 T10641139  RH  055%=      5-min Rain = 0
KWVS 111130Z 35016KT M06/M14 A3009 RMK A01 T10641139  RH  055%=      5-min Rain = 0
KWVS 111135Z 35014G19KT M07/M14 A3009 RMK A01 T10651140  RH  055%=      5-min Rain = 0
KWVS 111140Z 35014G19KT M07/M14 A3009 RMK A01 T10661140  RH  055%=      5-min Rain = 0
KWVS 111145Z 35015G20KT M07/M14 A3009 RMK A01 T10671141  RH  055%=      5-min Rain = 0
KWVS 111150Z 35015KT M07/M14 A301 RMK A01 T10691142  RH  056%=      5-min Rain = 0
KWVS 111155Z 35013KT M07/M14 A301 RMK A01 T10711142  RH  057%=      5-min Rain = 0
KWVS 111200Z 35013KT M07/M14 A3011 RMK A01 T10731142  RH  057%=      5-min Rain = 0
KWVS 111205Z 35012KT M07/M14 A3011 RMK A01 T10741142  RH  058%=      5-min Rain = 0
KWVS 111210Z 35013KT M08/M14 A3011 RMK A01 T10761142  RH  058%=      5-min Rain = 0
KWVS 111215Z 36012KT M08/M14 A3011 RMK A01 T10761142  RH  058%=      5-min Rain = 0
KWVS 111220Z 35009KT M08/M14 A3011 RMK A01 T10781143  RH  059%=      5-min Rain = 0
KWVS 111225Z 35011KT M08/M14 A3012 RMK A01 T10781143  RH  059%=      5-min Rain = 0
KWVS 111230Z 35009KT M08/M14 A3012 RMK A01 T10791143  RH  059%=      5-min Rain = 0
KWVS 111235Z 35010KT M08/M14 A3012 RMK A01 T10791143  RH  059%=      5-min Rain = 0
KWVS 111240Z 35010KT M08/M14 A3012 RMK A01 T10791143  RH  059%=      5-min Rain = 0
KWVS 111245Z 35008KT M08/M14 A3013 RMK A01 T10791144  RH  059%=      5-min Rain = 0
KWVS 111250Z 35009KT M08/M14 A3013 RMK A01 T10801144  RH  060%=      5-min Rain = 0
KWVS 111255Z 35008KT M08/M14 A3013 RMK A01 T10811144  RH  060%=      5-min Rain = 0
KWVS 111300Z 34008KT M08/M14 A3014 RMK A01 T10811144  RH  060%=      5-min Rain = 0
KWVS 111305Z 34007KT M08/M14 A3014 RMK A01 T10811144  RH  060%=      5-min Rain = 0
KWVS 111310Z 34006KT M08/M14 A3015 RMK A01 T10811144  RH  060%=      5-min Rain = 0
KWVS 111315Z 34006KT M08/M15 A3015 RMK A01 T10831145  RH  060%=      5-min Rain = 0
KWVS 111320Z 33005KT M08/M14 A3016 RMK A01 T10831144  RH  061%=      5-min Rain = 0
KWVS 111325Z 33005KT M08/M15 A3016 RMK A01 T10831145  RH  060%=      5-min Rain = 0
KWVS 111330Z 32006KT M08/M15 A3017 RMK A01 T10841145  RH  061%=      5-min Rain = 0
KWVS 111335Z 32006KT M09/M15 A3017 RMK A01 T10851146  RH  061%=      5-min Rain = 0
KWVS 111340Z 33005KT M09/M15 A3017 RMK A01 T10851146  RH  061%=      5-min Rain = 0
KWVS 111345Z 33007KT M09/M15 A3017 RMK A01 T10851145  RH  061%=      5-min Rain = 0
KWVS 111350Z 33007KT M08/M15 A3017 RMK A01 T10841145  RH  061%=      5-min Rain = 0
KWVS 111355Z 33006KT M08/M15 A3017 RMK A01 T10841145  RH  061%=      5-min Rain = 0
KWVS 111400Z 33006KT M08/M15 A3017 RMK A01 T10841145  RH  061%=      5-min Rain = 0
KWVS 111405Z 33006KT M08/M14 A3018 RMK A01 T10821144  RH  060%=      5-min Rain = 0
KWVS 111410Z 33005KT M08/M14 A3018 RMK A01 T10811144  RH  060%=      5-min Rain = 0
KWVS 111415Z 32005KT M08/M14 A3018 RMK A01 T10801143  RH  060%=      5-min Rain = 0
KWVS 111420Z 31004KT M08/M14 A3018 RMK A01 T10771142  RH  059%=      5-min Rain = 0
KWVS 111425Z 32006KT M07/M14 A3018 RMK A01 T10731142  RH  058%=      5-min Rain = 0
KWVS 111430Z 32007KT M07/M14 A3019 RMK A01 T10691142  RH  056%=      5-min Rain = 0
KWVS 111435Z 32008KT M07/M14 A3019 RMK A01 T10671142  RH  055%=      5-min Rain = 0
KWVS 111440Z 32009KT M06/M14 A302 RMK A01 T10631141  RH  054%=      5-min Rain = 0
KWVS 111445Z 32009KT M06/M14 A302 RMK A01 T10601141  RH  053%=      5-min Rain = 0
KWVS 111450Z 33010KT M06/M14 A3019 RMK A01 T10561139  RH  052%=      5-min Rain = 0
KWVS 111455Z 32011G16KT M05/M14 A302 RMK A01 T10511138  RH  050%=      5-min Rain = 0
KWVS 111500Z 33013KT M05/M14 A302 RMK A01 T10491139  RH  049%=      5-min Rain = 0
KWVS 111505Z 33012G17KT M04/M14 A302 RMK A01 T10441136  RH  048%=      5-min Rain = 0
KWVS 111510Z 33015G20KT M04/M14 A302 RMK A01 T10391136  RH  046%=      5-min Rain = 0
KWVS 111515Z 35013G18KT M04/M14 A302 RMK A01 T10381136  RH  046%=      5-min Rain = 0
KWVS 111520Z 34016KT M04/M14 A302 RMK A01 T10371135  RH  046%=      5-min Rain = 0
KWVS 111525Z 35016KT M04/M14 A302 RMK A01 T10351135  RH  046%=      5-min Rain = 0
KWVS 111530Z 35015G20KT M03/M13 A302 RMK A01 T10301133  RH  044%=      5-min Rain = 0
KWVS 111535Z 35016G22KT M03/M13 A302 RMK A01 T10301134  RH  044%=      5-min Rain = 0
KWVS 111540Z 35016KT M03/M13 A3021 RMK A01 T10271132  RH  044%=      5-min Rain = 0
KWVS 111545Z 34017KT M03/M13 A3021 RMK A01 T10251133  RH  043%=      5-min Rain = 0
KWVS 111550Z 00015G20KT M02/M13 A302 RMK A01 T10241133  RH  043%=      5-min Rain = 0
KWVS 111555Z 36018G23KT M03/M13 A302 RMK A01 T10261133  RH  043%=      5-min Rain = 0
KWVS 111600Z 36016KT M02/M13 A3021 RMK A01 T10221132  RH  042%=      5-min Rain = 0
KWVS 111605Z 35016KT M02/M13 A3021 RMK A01 T10201132  RH  042%=      5-min Rain = 0
KWVS 111610Z 34016KT M02/M13 A3021 RMK A01 T10231133  RH  042%=      5-min Rain = 0
KWVS 111615Z 00015KT M02/M13 A3021 RMK A01 T10241132  RH  043%=      5-min Rain = 0
KWVS 111620Z 35013KT M02/M13 A3021 RMK A01 T10211131  RH  042%=      5-min Rain = 0
KWVS 111625Z 34013KT M02/M13 A3022 RMK A01 T10221131  RH  043%=      5-min Rain = 0
KWVS 111630Z 35013G18KT M02/M13 A3022 RMK A01 T10221131  RH  043%=      5-min Rain = 0
KWVS 111635Z 35013G18KT M02/M13 A3021 RMK A01 T10211130  RH  043%=      5-min Rain = 0
KWVS 111640Z 35013KT M02/M13 A3021 RMK A01 T10221130  RH  043%=      5-min Rain = 0
KWVS 111645Z 34012KT M02/M13 A3022 RMK A01 T10211128  RH  043%=      5-min Rain = 0
KWVS 111650Z 35013KT M02/M13 A3022 RMK A01 T10201128  RH  043%=      5-min Rain = 0
KWVS 111655Z 35012G17KT M02/M13 A3022 RMK A01 T10191127  RH  043%=      5-min Rain = 0
KWVS 111700Z 35012KT M02/M13 A3022 RMK A01 T10181127  RH  043%=      5-min Rain = 0
KWVS 111705Z 34011KT M02/M13 A3022 RMK A01 T10151127  RH  042%=      5-min Rain = 0
KWVS 111710Z 33012KT M01/M13 A3022 RMK A01 T10131125  RH  042%=      5-min Rain = 0
KWVS 111715Z 35012KT M01/M12 A3022 RMK A01 T10071123  RH  041%=      5-min Rain = 0
KWVS 111720Z 35011G17KT M01/M12 A3022 RMK A01 T10061123  RH  041%=      5-min Rain = 0
KWVS 111725Z 33013KT M01/M12 A3022 RMK A01 T10051124  RH  040%=      5-min Rain = 0
KWVS 111730Z 35010KT M00/M12 A3022 RMK A01 T10031123  RH  040%=      5-min Rain = 0
KWVS 111735Z 35008KT M01/M12 A3022 RMK A01 T10071124  RH  040%=      5-min Rain = 0
KWVS 111740Z 35010KT M00/M12 A3022 RMK A01 T10041123  RH  040%=      5-min Rain = 0
KWVS 111745Z 34011KT M00/M12 A3022 RMK A01 T10011123  RH  039%=      5-min Rain = 0
KWVS 111750Z 33008KT 00/M12 A3022 RMK A01 T00041121  RH  038%=      5-min Rain = 0
KWVS 111755Z 34012G17KT 01/M12 A3022 RMK A01 T00061123  RH  037%=      5-min Rain = 0
KWVS 111800Z 35012KT 00/M13 A3022 RMK A01 T00031125  RH  037%=      5-min Rain = 0
KWVS 111805Z 35011KT 01/M13 A3022 RMK A01 T00051125  RH  037%=      5-min Rain = 0
KWVS 111810Z 34010G15KT 01/M13 A3022 RMK A01 T00051125  RH  037%=      5-min Rain = 0
KWVS 111815Z 35011KT 01/M13 A3021 RMK A01 T00061126  RH  036%=      5-min Rain = 0
KWVS 111820Z 36009KT 00/M13 A3021 RMK A01 T00031126  RH  037%=      5-min Rain = 0
KWVS 111825Z 33009G15KT 01/M13 A3021 RMK A01 T00071126  RH  036%=      5-min Rain = 0
KWVS 111830Z 34011G17KT 01/M13 A3021 RMK A01 T00091126  RH  036%=      5-min Rain = 0
KWVS 111835Z 35011KT 01/M13 A302 RMK A01 T00081125  RH  036%=      5-min Rain = 0
KWVS 111840Z 35012KT 01/M13 A302 RMK A01 T00101125  RH  036%=      5-min Rain = 0
KWVS 111845Z 35010KT 01/M12 A302 RMK A01 T00141123  RH  035%=      5-min Rain = 0
KWVS 111850Z 34010G15KT 02/M12 A302 RMK A01 T00151123  RH  035%=      5-min Rain = 0
KWVS 111855Z 34011G16KT 01/M12 A3019 RMK A01 T00141124  RH  035%=      5-min Rain = 0
KWVS 111900Z 35012KT 02/M12 A3019 RMK A01 T00161123  RH  035%=      5-min Rain = 0
KWVS 111905Z 36010G17KT 02/M12 A3019 RMK A01 T00211123  RH  033%=      5-min Rain = 0
KWVS 111910Z 34011G16KT 03/M12 A3018 RMK A01 T00271121  RH  032%=      5-min Rain = 0
KWVS 111915Z 34011G17KT 03/M12 A3018 RMK A01 T00271123  RH  032%=      5-min Rain = 0
KWVS 111920Z 34011G19KT 03/M12 A3018 RMK A01 T00261123  RH  032%=      5-min Rain = 0
KWVS 111925Z 35009KT 02/M13 A3018 RMK A01 T00241125  RH  032%=      5-min Rain = 0
KWVS 111930Z 36011KT 03/M12 A3017 RMK A01 T00311122  RH  031%=      5-min Rain = 0
KWVS 111935Z 00009G14KT 03/M12 A3017 RMK A01 T00311123  RH  031%=      5-min Rain = 0
KWVS 111940Z 35010G16KT 03/M12 A3017 RMK A01 T00341123  RH  030%=      5-min Rain = 0
KWVS 111945Z 35007KT 03/M12 A3016 RMK A01 T00311123  RH  031%=      5-min Rain = 0
KWVS 111950Z 01008G13KT 04/M12 A3016 RMK A01 T00381122  RH  030%=      5-min Rain = 0
KWVS 111955Z 00008KT 04/M12 A3016 RMK A01 T00381122  RH  030%=      5-min Rain = 0
KWVS 112000Z 34007KT 04/M12 A3016 RMK A01 T00361124  RH  030%=      5-min Rain = 0
KWVS 112005Z 00006G11KT 04/M12 A3016 RMK A01 T00411123  RH  029%=      5-min Rain = 0
KWVS 112010Z 35008KT 04/M13 A3015 RMK A01 T00441125  RH  028%=      5-min Rain = 0
KWVS 112015Z 02006KT 05/M13 A3015 RMK A01 T00451125  RH  028%=      5-min Rain = 0
KWVS 112020Z 01006KT 05/M13 A3015 RMK A01 T00471126  RH  027%=      5-min Rain = 0
KWVS 112025Z 01006G13KT 05/M13 A3015 RMK A01 T00491127  RH  027%=      5-min Rain = 0
KWVS 112030Z 02006KT 05/M13 A3014 RMK A01 T00481126  RH  027%=      5-min Rain = 0
KWVS 112035Z 33004KT 05/M13 A3014 RMK A01 T00501126  RH  027%=      5-min Rain = 0
KWVS 112040Z 04006KT 05/M13 A3014 RMK A01 T00541127  RH  026%=      5-min Rain = 0
KWVS 112045Z 03003G10KT 06/M13 A3014 RMK A01 T00551131  RH  025%=      5-min Rain = 0
KWVS 112050Z 03006KT 06/M13 A3014 RMK A01 T00571130  RH  024%=      5-min Rain = 0
KWVS 112055Z 01006G11KT 06/M13 A3014 RMK A01 T00621129  RH  024%=      5-min Rain = 0
KWVS 112100Z 02004KT 06/M13 A3014 RMK A01 T00581130  RH  024%=      5-min Rain = 0
KWVS 112105Z 01004G13KT 06/M13 A3014 RMK A01 T00641130  RH  023%=      5-min Rain = 0
KWVS 112110Z 05007KT 07/M13 A3014 RMK A01 T00671132  RH  023%=      5-min Rain = 0
KWVS 112115Z 04007G12KT 07/M13 A3014 RMK A01 T00661132  RH  023%=      5-min Rain = 0
KWVS 112120Z 01006KT 06/M13 A3014 RMK A01 T00641133  RH  023%=      5-min Rain = 0
KWVS 112125Z 06004KT 07/M13 A3014 RMK A01 T00651132  RH  023%=      5-min Rain = 0
KWVS 112130Z 06004KT 07/M13 A3014 RMK A01 T00691133  RH  022%=      5-min Rain = 0
KWVS 112135Z 09002KT 07/M13 A3014 RMK A01 T00661133  RH  022%=      5-min Rain = 0
KWVS 112140Z 11002KT 07/M13 A3014 RMK A01 T00711133  RH  022%=      5-min Rain = 0
KWVS 112145Z 06005KT 07/M13 A3013 RMK A01 T00721134  RH  021%=      5-min Rain = 0
KWVS 112150Z 06005KT 07/M13 A3013 RMK A01 T00691134  RH  022%=      5-min Rain = 0
KWVS 112155Z 09006KT 07/M13 A3013 RMK A01 T00731134  RH  021%=      5-min Rain = 0
KWVS 112200Z 10006KT 07/M13 A3013 RMK A01 T00731134  RH  021%=      5-min Rain = 0
KWVS 112205Z 09003KT 07/M14 A3014 RMK A01 T00661136  RH  022%=      5-min Rain = 0
KWVS 112210Z 26001KT 07/M14 A3014 RMK A01 T00731135  RH  021%=      5-min Rain = 0
KWVS 112215Z 09004G9KT 08/M14 A3013 RMK A01 T00751136  RH  021%=      5-min Rain = 0
KWVS 112220Z 09005KT 07/M14 A3014 RMK A01 T00741136  RH  021%=      5-min Rain = 0
KWVS 112225Z 09006KT 07/M14 A3013 RMK A01 T00731137  RH  021%=      5-min Rain = 0
KWVS 112230Z 04006KT 07/M14 A3014 RMK A01 T00731137  RH  021%=      5-min Rain = 0
KWVS 112235Z 04005KT 07/M14 A3014 RMK A01 T00721137  RH  021%=      5-min Rain = 0
KWVS 112240Z 35003KT 07/M14 A3014 RMK A01 T00671138  RH  021%=      5-min Rain = 0
KWVS 112245Z 34003KT 07/M14 A3014 RMK A01 T00691138  RH  021%=      5-min Rain = 0
KWVS 112250Z 07004KT 07/M14 A3014 RMK A01 T00691138  RH  021%=      5-min Rain = 0
KWVS 112255Z 07004KT 07/M14 A3014 RMK A01 T00661138  RH  021%=      5-min Rain = 0
KWVS 112300Z 06002KT 07/M14 A3014 RMK A01 T00671139  RH  021%=      5-min Rain = 0
KWVS 112305Z 12003KT 07/M14 A3014 RMK A01 T00671139  RH  021%=      5-min Rain = 0
KWVS 112310Z 10006KT 06/M14 A3014 RMK A01 T00631140  RH  022%=      5-min Rain = 0
KWVS 112315Z 11005KT 06/M14 A3015 RMK A01 T00591141  RH  022%=      5-min Rain = 0
KWVS 112320Z 12006KT 06/M14 A3015 RMK A01 T00571139  RH  023%=      5-min Rain = 0
KWVS 112325Z 12007KT 06/M14 A3015 RMK A01 T00571139  RH  023%=      5-min Rain = 0
KWVS 112330Z 11006KT 06/M14 A3015 RMK A01 T00571139  RH  023%=      5-min Rain = 0
KWVS 112335Z 12005KT 06/M14 A3015 RMK A01 T00591138  RH  022%=      5-min Rain = 0
KWVS 112340Z 12005KT 06/M14 A3016 RMK A01 T00611140  RH  022%=      5-min Rain = 0
KWVS 112345Z 12007KT 06/M14 A3016 RMK A01 T00591141  RH  022%=      5-min Rain = 0
KWVS 112350Z 12006KT 06/M14 A3016 RMK A01 T00571141  RH  022%=      5-min Rain = 0
KWVS 112355Z 13006KT 05/M14 A3016 RMK A01 T00541142  RH  023%=      5-min Rain = 0
KWVS 120000Z 12006KT 05/M14 A3016 RMK A01 T00481141  RH  024%=      5-min Rain = 0
KWVS 120005Z 12006KT 04/M14 A3016 RMK A01 T00431141  RH  025%=      5-min Rain = 0
KWVS 120010Z 11006KT 04/M14 A3017 RMK A01 T00391141  RH  025%=      5-min Rain = 0
KWVS 120015Z 12006KT 04/M14 A3017 RMK A01 T00371141  RH  026%=      5-min Rain = 0
KWVS 120020Z 11006KT 03/M14 A3017 RMK A01 T00331142  RH  026%=      5-min Rain = 0
KWVS 120025Z 11006KT 03/M14 A3017 RMK A01 T00291143  RH  027%=      5-min Rain = 0
KWVS 120030Z 11006KT 03/M14 A3017 RMK A01 T00261143  RH  027%=      5-min Rain = 0
KWVS 120035Z 10006KT 02/M14 A3017 RMK A01 T00241143  RH  028%=      5-min Rain = 0
KWVS 120040Z 11006KT 02/M14 A3017 RMK A01 T00241144  RH  028%=      5-min Rain = 0
KWVS 120045Z 11006KT 02/M14 A3018 RMK A01 T00211144  RH  028%=      5-min Rain = 0
KWVS 120050Z 11006KT 02/M15 A3018 RMK A01 T00211145  RH  028%=      5-min Rain = 0
KWVS 120055Z 10006KT 02/M15 A3018 RMK A01 T00201145  RH  028%=      5-min Rain = 0
KWVS 120100Z 10006KT 02/M15 A3018 RMK A01 T00181147  RH  028%=      5-min Rain = 0
KWVS 120105Z 10006KT 02/M15 A3018 RMK A01 T00171147  RH  028%=      5-min Rain = 0
KWVS 120110Z 10007KT 02/M15 A3018 RMK A01 T00151148  RH  028%=      5-min Rain = 0
KWVS 120115Z 10007KT 02/M15 A3018 RMK A01 T00151148  RH  028%=      5-min Rain = 0
KWVS 120120Z 09006KT 02/M15 A3018 RMK A01 T00161148  RH  028%=      5-min Rain = 0
KWVS 120125Z 10006KT 01/M15 A3018 RMK A01 T00141149  RH  028%=      5-min Rain = 0
KWVS 120130Z 10006KT 01/M15 A3018 RMK A01 T00121149  RH  029%=      5-min Rain = 0
KWVS 120135Z 10005KT 01/M15 A3019 RMK A01 T00111149  RH  029%=      5-min Rain = 0
KWVS 120140Z 10006KT 01/M15 A3019 RMK A01 T00101149  RH  029%=      5-min Rain = 0
KWVS 120145Z 11006KT 01/M15 A3019 RMK A01 T00071151  RH  029%=      5-min Rain = 0
KWVS 120150Z 11006KT 01/M15 A3019 RMK A01 T00061151  RH  029%=      5-min Rain = 0
KWVS 120155Z 10006KT 01/M15 A302 RMK A01 T00071151  RH  029%=      5-min Rain = 0
KWVS 120200Z 10006KT 01/M15 A302 RMK A01 T00051152  RH  029%=      5-min Rain = 0
KWVS 120205Z 11006KT 00/M15 A302 RMK A01 T00041152  RH  030%=      5-min Rain = 0
KWVS 120210Z 11006KT 00/M15 A302 RMK A01 T00021152  RH  030%=      5-min Rain = 0
KWVS 120215Z 11006KT 00/15 A302 RMK A01 T00000-153  RH  030%=      5-min Rain = 0
KWVS 120220Z 11005KT M00/M15 A302 RMK A01 T10011152  RH  031%=      5-min Rain = 0
KWVS 120225Z 11006KT M00/M15 A3021 RMK A01 T10011152  RH  031%=      5-min Rain = 0
KWVS 120230Z 10006KT M00/M15 A3021 RMK A01 T10031151  RH  031%=      5-min Rain = 0
KWVS 120235Z 10006KT M01/M15 A3021 RMK A01 T10051151  RH  032%=      5-min Rain = 0
KWVS 120240Z 10007KT M01/M15 A3021 RMK A01 T10061150  RH  032%=      5-min Rain = 0
KWVS 120245Z 10006KT M01/M15 A3021 RMK A01 T10061150  RH  033%=      5-min Rain = 0
KWVS 120250Z 10006KT M01/M15 A3021 RMK A01 T10071151  RH  032%=      5-min Rain = 0
KWVS 120255Z 10006KT M01/M15 A3021 RMK A01 T10091152  RH  033%=      5-min Rain = 0
KWVS 120300Z 10006KT M01/M15 A3021 RMK A01 T10101152  RH  033%=      5-min Rain = 0
KWVS 120305Z 11005KT M01/M15 A3022 RMK A01 T10111153  RH  033%=      5-min Rain = 0
KWVS 120310Z 11005KT M01/M15 A3022 RMK A01 T10101152  RH  033%=      5-min Rain = 0
KWVS 120315Z 11005KT M01/M15 A3022 RMK A01 T10101152  RH  033%=      5-min Rain = 0
KWVS 120320Z 12005KT M01/M15 A3022 RMK A01 T10101152  RH  033%=      5-min Rain = 0
KWVS 120325Z 12004KT M01/M15 A3022 RMK A01 T10111153  RH  033%=      5-min Rain = 0
KWVS 120330Z 13005KT M01/M15 A3022 RMK A01 T10121153  RH  033%=      5-min Rain = 0
KWVS 120335Z 13004KT M01/M15 A3023 RMK A01 T10131154  RH  033%=      5-min Rain = 0
KWVS 120340Z 13003KT M02/M16 A3023 RMK A01 T10151155  RH  033%=      5-min Rain = 0
KWVS 120345Z 13002KT M02/M15 A3023 RMK A01 T10151153  RH  034%=      5-min Rain = 0
KWVS 120350Z 14002KT M01/M15 A3023 RMK A01 T10091151  RH  033%=      5-min Rain = 0
KWVS 120355Z 16002KT M01/M15 A3023 RMK A01 T10071152  RH  032%=      5-min Rain = 0
KWVS 120400Z 16002KT M01/M15 A3023 RMK A01 T10091152  RH  033%=      5-min Rain = 0
KWVS 120405Z 16002KT M01/M15 A3024 RMK A01 T10101152  RH  033%=      5-min Rain = 0
KWVS 120410Z 16001KT M01/M15 A3024 RMK A01 T10101151  RH  033%=      5-min Rain = 0
KWVS 120415Z 16002KT M01/M15 A3024 RMK A01 T10091150  RH  033%=      5-min Rain = 0
KWVS 120420Z 17001KT M01/M15 A3023 RMK A01 T10091150  RH  033%=      5-min Rain = 0
KWVS 120425Z 15001KT M01/M15 A3023 RMK A01 T10131152  RH  033%=      5-min Rain = 0
KWVS 120430Z 14001KT M02/M15 A3024 RMK A01 T10161152  RH  034%=      5-min Rain = 0
KWVS 120435Z 14003KT M01/M15 A3023 RMK A01 T10131150  RH  034%=      5-min Rain = 0
KWVS 120440Z 13002KT M01/M15 A3024 RMK A01 T10091150  RH  033%=      5-min Rain = 0
KWVS 120445Z 13003KT M01/M15 A3024 RMK A01 T10081150  RH  033%=      5-min Rain = 0
KWVS 120450Z 13003KT M01/M15 A3023 RMK A01 T10071149  RH  033%=      5-min Rain = 0
KWVS 120455Z 13003KT M01/M15 A3024 RMK A01 T10081149  RH  033%=      5-min Rain = 0
KWVS 120500Z 13003KT M01/M15 A3024 RMK A01 T10071149  RH  033%=      5-min Rain = 0
KWVS 120505Z 12003KT M01/M15 A3024 RMK A01 T10081149  RH  033%=      5-min Rain = 0
KWVS 120510Z 12003KT M01/M15 A3024 RMK A01 T10091148  RH  034%=      5-min Rain = 0
KWVS 120515Z 12002KT M01/M15 A3024 RMK A01 T10071148  RH  033%=      5-min Rain = 0
KWVS 120520Z 10002KT M01/M15 A3024 RMK A01 T10091149  RH  034%=      5-min Rain = 0
KWVS 120525Z 09001KT M02/M15 A3024 RMK A01 T10151150  RH  035%=      5-min Rain = 0
KWVS 120530Z 07002KT M01/M15 A3024 RMK A01 T10141149  RH  035%=      5-min Rain = 0
KWVS 120535Z 07003KT M01/M15 A3024 RMK A01 T10131149  RH  035%=      5-min Rain = 0
KWVS 120540Z 06003KT M01/M15 A3024 RMK A01 T10131148  RH  035%=      5-min Rain = 0
KWVS 120545Z 05003KT M02/M15 A3023 RMK A01 T10151148  RH  035%=      5-min Rain = 0
KWVS 120550Z 05003KT M02/M15 A3023 RMK A01 T10191150  RH  036%=      5-min Rain = 0
KWVS 120555Z 05003KT M02/M15 A3024 RMK A01 T10191149  RH  036%=      5-min Rain = 0

Page generated in 0.0097 seconds.